sensor_id;sensor_type;location;lat;lon;timestamp;temperature;humidity
68681;DHT22;55836;49.858;6.756;2022-07-26T00:01:04;17.70;99.90
68681;DHT22;55836;49.858;6.756;2022-07-26T00:03:30;17.50;99.90
68681;DHT22;55836;49.858;6.756;2022-07-26T00:05:55;17.70;99.90
68681;DHT22;55836;49.858;6.756;2022-07-26T00:08:21;17.80;99.90
68681;DHT22;55836;49.858;6.756;2022-07-26T00:10:48;17.70;99.90
68681;DHT22;55836;49.858;6.756;2022-07-26T00:13:15;17.70;99.90
68681;DHT22;55836;49.858;6.756;2022-07-26T00:15:42;17.80;99.90
68681;DHT22;55836;49.858;6.756;2022-07-26T00:18:09;17.80;99.90
68681;DHT22;55836;49.858;6.756;2022-07-26T00:20:35;17.80;99.90
68681;DHT22;55836;49.858;6.756;2022-07-26T00:23:01;18.00;99.90
68681;DHT22;55836;49.858;6.756;2022-07-26T00:25:27;17.80;99.90
68681;DHT22;55836;49.858;6.756;2022-07-26T00:27:53;17.70;99.90
68681;DHT22;55836;49.858;6.756;2022-07-26T00:30:19;17.70;99.90
68681;DHT22;55836;49.858;6.756;2022-07-26T00:32:44;17.70;99.90
68681;DHT22;55836;49.858;6.756;2022-07-26T00:35:10;17.70;99.90
68681;DHT22;55836;49.858;6.756;2022-07-26T00:37:37;17.90;99.90
68681;DHT22;55836;49.858;6.756;2022-07-26T00:40:04;17.80;99.90
68681;DHT22;55836;49.858;6.756;2022-07-26T00:42:30;17.70;99.90
68681;DHT22;55836;49.858;6.756;2022-07-26T00:44:56;17.80;99.90
68681;DHT22;55836;49.858;6.756;2022-07-26T00:47:21;17.60;99.90
68681;DHT22;55836;49.858;6.756;2022-07-26T00:49:47;17.50;99.90
68681;DHT22;55836;49.858;6.756;2022-07-26T00:52:13;17.60;99.90
68681;DHT22;55836;49.858;6.756;2022-07-26T00:54:42;17.50;99.90
68681;DHT22;55836;49.858;6.756;2022-07-26T00:57:13;17.50;99.90
68681;DHT22;55836;49.858;6.756;2022-07-26T00:59:40;17.50;99.90
68681;DHT22;55836;49.858;6.756;2022-07-26T01:02:07;17.30;99.90
68681;DHT22;55836;49.858;6.756;2022-07-26T01:04:36;17.20;99.90
68681;DHT22;55836;49.858;6.756;2022-07-26T01:07:02;17.20;99.90
68681;DHT22;55836;49.858;6.756;2022-07-26T01:09:28;17.30;99.90
68681;DHT22;55836;49.858;6.756;2022-07-26T01:11:54;17.20;99.90
68681;DHT22;55836;49.858;6.756;2022-07-26T01:14:21;17.00;99.90
68681;DHT22;55836;49.858;6.756;2022-07-26T01:16:47;16.90;99.90
68681;DHT22;55836;49.858;6.756;2022-07-26T01:19:13;16.90;99.90
68681;DHT22;55836;49.858;6.756;2022-07-26T01:21:39;16.90;99.90
68681;DHT22;55836;49.858;6.756;2022-07-26T01:24:05;16.80;99.90
68681;DHT22;55836;49.858;6.756;2022-07-26T01:26:31;17.00;99.90
68681;DHT22;55836;49.858;6.756;2022-07-26T01:28:57;16.90;99.90
68681;DHT22;55836;49.858;6.756;2022-07-26T01:31:23;16.80;99.90
68681;DHT22;55836;49.858;6.756;2022-07-26T01:33:49;16.70;99.90
68681;DHT22;55836;49.858;6.756;2022-07-26T01:36:15;16.80;99.90
68681;DHT22;55836;49.858;6.756;2022-07-26T01:38:41;16.90;99.90
68681;DHT22;55836;49.858;6.756;2022-07-26T01:41:07;16.80;99.90
68681;DHT22;55836;49.858;6.756;2022-07-26T01:43:34;16.60;99.90
68681;DHT22;55836;49.858;6.756;2022-07-26T01:45:59;16.50;99.90
68681;DHT22;55836;49.858;6.756;2022-07-26T01:48:25;16.40;99.90
68681;DHT22;55836;49.858;6.756;2022-07-26T01:50:51;16.30;99.90
68681;DHT22;55836;49.858;6.756;2022-07-26T01:53:17;16.40;99.90
68681;DHT22;55836;49.858;6.756;2022-07-26T01:55:42;16.30;99.90
68681;DHT22;55836;49.858;6.756;2022-07-26T01:58:08;16.30;99.90
68681;DHT22;55836;49.858;6.756;2022-07-26T02:00:34;16.20;99.90
68681;DHT22;55836;49.858;6.756;2022-07-26T02:03:00;16.30;99.90
68681;DHT22;55836;49.858;6.756;2022-07-26T02:05:26;16.30;99.90
68681;DHT22;55836;49.858;6.756;2022-07-26T02:07:52;16.20;99.90
68681;DHT22;55836;49.858;6.756;2022-07-26T02:10:18;16.10;99.90
68681;DHT22;55836;49.858;6.756;2022-07-26T02:12:43;16.10;99.90
68681;DHT22;55836;49.858;6.756;2022-07-26T02:15:11;16.00;99.90
68681;DHT22;55836;49.858;6.756;2022-07-26T02:17:36;15.90;99.90
68681;DHT22;55836;49.858;6.756;2022-07-26T02:20:03;16.00;99.90
68681;DHT22;55836;49.858;6.756;2022-07-26T02:22:29;16.00;99.90
68681;DHT22;55836;49.858;6.756;2022-07-26T02:24:55;15.90;99.90
68681;DHT22;55836;49.858;6.756;2022-07-26T02:27:20;15.90;99.90
68681;DHT22;55836;49.858;6.756;2022-07-26T02:29:46;16.00;99.90
68681;DHT22;55836;49.858;6.756;2022-07-26T02:32:12;15.90;99.90
68681;DHT22;55836;49.858;6.756;2022-07-26T02:34:56;15.90;99.90
68681;DHT22;55836;49.858;6.756;2022-07-26T02:37:21;15.90;99.90
68681;DHT22;55836;49.858;6.756;2022-07-26T02:39:48;16.00;99.90
68681;DHT22;55836;49.858;6.756;2022-07-26T02:42:13;16.00;99.90
68681;DHT22;55836;49.858;6.756;2022-07-26T02:44:39;15.90;99.90
68681;DHT22;55836;49.858;6.756;2022-07-26T02:47:05;15.80;99.90
68681;DHT22;55836;49.858;6.756;2022-07-26T02:49:31;15.80;99.90
68681;DHT22;55836;49.858;6.756;2022-07-26T02:51:57;15.70;99.90
68681;DHT22;55836;49.858;6.756;2022-07-26T02:54:22;15.70;99.90
68681;DHT22;55836;49.858;6.756;2022-07-26T02:56:48;15.90;99.90
68681;DHT22;55836;49.858;6.756;2022-07-26T02:59:14;15.90;99.90
68681;DHT22;55836;49.858;6.756;2022-07-26T03:01:39;15.90;99.90
68681;DHT22;55836;49.858;6.756;2022-07-26T03:04:05;16.10;99.90
68681;DHT22;55836;49.858;6.756;2022-07-26T03:06:32;16.20;99.90
68681;DHT22;55836;49.858;6.756;2022-07-26T03:08:58;16.20;99.90
68681;DHT22;55836;49.858;6.756;2022-07-26T03:11:24;16.30;99.90
68681;DHT22;55836;49.858;6.756;2022-07-26T03:13:49;16.30;99.90
68681;DHT22;55836;49.858;6.756;2022-07-26T03:16:15;16.30;99.90
68681;DHT22;55836;49.858;6.756;2022-07-26T03:18:41;16.30;99.90
68681;DHT22;55836;49.858;6.756;2022-07-26T03:21:07;16.30;99.90
68681;DHT22;55836;49.858;6.756;2022-07-26T03:23:32;16.20;99.90
68681;DHT22;55836;49.858;6.756;2022-07-26T03:26:00;16.10;99.90
68681;DHT22;55836;49.858;6.756;2022-07-26T03:28:29;16.10;99.90
68681;DHT22;55836;49.858;6.756;2022-07-26T03:30:55;16.00;99.90
68681;DHT22;55836;49.858;6.756;2022-07-26T03:33:21;15.90;99.90
68681;DHT22;55836;49.858;6.756;2022-07-26T03:35:46;16.00;99.90
68681;DHT22;55836;49.858;6.756;2022-07-26T03:38:12;16.10;99.90
68681;DHT22;55836;49.858;6.756;2022-07-26T03:40:38;16.10;99.90
68681;DHT22;55836;49.858;6.756;2022-07-26T03:43:03;16.20;99.90
68681;DHT22;55836;49.858;6.756;2022-07-26T03:45:30;16.20;99.90
68681;DHT22;55836;49.858;6.756;2022-07-26T03:47:56;16.20;99.90
68681;DHT22;55836;49.858;6.756;2022-07-26T03:50:21;16.10;99.90
68681;DHT22;55836;49.858;6.756;2022-07-26T03:52:47;16.10;99.90
68681;DHT22;55836;49.858;6.756;2022-07-26T03:55:13;16.10;99.90
68681;DHT22;55836;49.858;6.756;2022-07-26T03:57:57;16.10;99.90
68681;DHT22;55836;49.858;6.756;2022-07-26T04:00:23;16.20;99.90
68681;DHT22;55836;49.858;6.756;2022-07-26T04:02:48;16.20;99.90
68681;DHT22;55836;49.858;6.756;2022-07-26T04:05:14;16.20;99.90
68681;DHT22;55836;49.858;6.756;2022-07-26T04:07:41;16.30;99.90
68681;DHT22;55836;49.858;6.756;2022-07-26T04:10:08;16.30;99.90
68681;DHT22;55836;49.858;6.756;2022-07-26T04:12:34;16.20;99.90
68681;DHT22;55836;49.858;6.756;2022-07-26T04:14:59;16.20;99.90
68681;DHT22;55836;49.858;6.756;2022-07-26T04:17:25;16.20;99.90
68681;DHT22;55836;49.858;6.756;2022-07-26T04:19:51;16.20;99.90
68681;DHT22;55836;49.858;6.756;2022-07-26T04:22:16;16.20;99.90
68681;DHT22;55836;49.858;6.756;2022-07-26T04:24:42;16.20;99.90
68681;DHT22;55836;49.858;6.756;2022-07-26T04:27:08;16.20;99.90
68681;DHT22;55836;49.858;6.756;2022-07-26T04:29:33;16.30;99.90
68681;DHT22;55836;49.858;6.756;2022-07-26T04:31:59;16.30;99.90
68681;DHT22;55836;49.858;6.756;2022-07-26T04:34:25;16.40;99.90
68681;DHT22;55836;49.858;6.756;2022-07-26T04:36:50;16.50;99.90
68681;DHT22;55836;49.858;6.756;2022-07-26T04:39:17;16.40;99.90
68681;DHT22;55836;49.858;6.756;2022-07-26T04:41:49;16.60;99.90
68681;DHT22;55836;49.858;6.756;2022-07-26T04:44:14;16.60;99.90
68681;DHT22;55836;49.858;6.756;2022-07-26T04:46:40;16.70;99.90
68681;DHT22;55836;49.858;6.756;2022-07-26T04:49:06;16.80;99.90
68681;DHT22;55836;49.858;6.756;2022-07-26T04:51:31;16.70;99.90
68681;DHT22;55836;49.858;6.756;2022-07-26T04:53:57;16.70;99.90
68681;DHT22;55836;49.858;6.756;2022-07-26T04:56:22;16.70;99.90
68681;DHT22;55836;49.858;6.756;2022-07-26T04:58:48;16.80;99.90
68681;DHT22;55836;49.858;6.756;2022-07-26T05:01:14;16.80;99.90
68681;DHT22;55836;49.858;6.756;2022-07-26T05:03:39;16.70;99.90
68681;DHT22;55836;49.858;6.756;2022-07-26T05:06:05;16.80;99.90
68681;DHT22;55836;49.858;6.756;2022-07-26T05:08:31;16.80;99.90
68681;DHT22;55836;49.858;6.756;2022-07-26T05:10:57;16.90;99.90
68681;DHT22;55836;49.858;6.756;2022-07-26T05:13:23;16.90;99.90
68681;DHT22;55836;49.858;6.756;2022-07-26T05:15:48;17.00;99.90
68681;DHT22;55836;49.858;6.756;2022-07-26T05:18:14;17.10;99.90
68681;DHT22;55836;49.858;6.756;2022-07-26T05:20:40;17.10;99.90
68681;DHT22;55836;49.858;6.756;2022-07-26T05:23:05;17.10;99.90
68681;DHT22;55836;49.858;6.756;2022-07-26T05:25:31;17.20;99.90
68681;DHT22;55836;49.858;6.756;2022-07-26T05:27:57;17.30;99.90
68681;DHT22;55836;49.858;6.756;2022-07-26T05:30:23;17.40;99.90
68681;DHT22;55836;49.858;6.756;2022-07-26T05:32:48;17.50;99.90
68681;DHT22;55836;49.858;6.756;2022-07-26T05:35:14;17.50;99.90
68681;DHT22;55836;49.858;6.756;2022-07-26T05:37:40;17.50;99.90
68681;DHT22;55836;49.858;6.756;2022-07-26T05:40:06;17.60;99.90
68681;DHT22;55836;49.858;6.756;2022-07-26T05:42:32;17.70;99.90
68681;DHT22;55836;49.858;6.756;2022-07-26T05:44:57;17.80;99.90
68681;DHT22;55836;49.858;6.756;2022-07-26T05:47:23;17.90;99.90
68681;DHT22;55836;49.858;6.756;2022-07-26T05:49:49;18.20;99.90
68681;DHT22;55836;49.858;6.756;2022-07-26T05:52:15;18.30;99.90
68681;DHT22;55836;49.858;6.756;2022-07-26T05:54:40;18.40;99.90
68681;DHT22;55836;49.858;6.756;2022-07-26T05:57:06;18.60;99.90
68681;DHT22;55836;49.858;6.756;2022-07-26T05:59:32;18.70;99.90
68681;DHT22;55836;49.858;6.756;2022-07-26T06:01:58;18.70;99.90
68681;DHT22;55836;49.858;6.756;2022-07-26T06:04:24;18.60;99.90
68681;DHT22;55836;49.858;6.756;2022-07-26T06:06:50;18.40;99.90
68681;DHT22;55836;49.858;6.756;2022-07-26T06:09:17;18.40;99.90
68681;DHT22;55836;49.858;6.756;2022-07-26T06:11:43;18.50;99.90
68681;DHT22;55836;49.858;6.756;2022-07-26T06:14:09;18.50;99.90
68681;DHT22;55836;49.858;6.756;2022-07-26T06:16:35;18.40;99.90
68681;DHT22;55836;49.858;6.756;2022-07-26T06:19:00;18.30;99.90
68681;DHT22;55836;49.858;6.756;2022-07-26T06:21:26;18.30;99.90
68681;DHT22;55836;49.858;6.756;2022-07-26T06:23:52;18.30;99.90
68681;DHT22;55836;49.858;6.756;2022-07-26T06:26:17;18.40;99.90
68681;DHT22;55836;49.858;6.756;2022-07-26T06:28:43;18.40;99.90
68681;DHT22;55836;49.858;6.756;2022-07-26T06:31:09;18.40;99.90
68681;DHT22;55836;49.858;6.756;2022-07-26T06:33:35;18.40;99.90
68681;DHT22;55836;49.858;6.756;2022-07-26T06:36:01;18.30;99.90
68681;DHT22;55836;49.858;6.756;2022-07-26T06:38:26;18.30;99.90
68681;DHT22;55836;49.858;6.756;2022-07-26T06:40:55;18.40;99.90
68681;DHT22;55836;49.858;6.756;2022-07-26T06:43:21;18.50;99.90
68681;DHT22;55836;49.858;6.756;2022-07-26T06:45:46;18.50;99.90
68681;DHT22;55836;49.858;6.756;2022-07-26T06:48:13;18.60;99.90
68681;DHT22;55836;49.858;6.756;2022-07-26T06:50:40;18.50;99.90
68681;DHT22;55836;49.858;6.756;2022-07-26T06:53:05;18.60;99.90
68681;DHT22;55836;49.858;6.756;2022-07-26T06:55:31;18.60;99.90
68681;DHT22;55836;49.858;6.756;2022-07-26T06:57:57;18.60;99.90
68681;DHT22;55836;49.858;6.756;2022-07-26T07:00:22;18.70;99.90
68681;DHT22;55836;49.858;6.756;2022-07-26T07:02:48;18.70;99.90
68681;DHT22;55836;49.858;6.756;2022-07-26T07:05:14;18.70;99.90
68681;DHT22;55836;49.858;6.756;2022-07-26T07:07:40;18.60;99.90
68681;DHT22;55836;49.858;6.756;2022-07-26T07:10:06;18.70;99.90
68681;DHT22;55836;49.858;6.756;2022-07-26T07:12:32;18.60;99.90
68681;DHT22;55836;49.858;6.756;2022-07-26T07:14:58;18.60;99.90
68681;DHT22;55836;49.858;6.756;2022-07-26T07:17:23;18.50;99.90
68681;DHT22;55836;49.858;6.756;2022-07-26T07:19:49;18.60;99.90
68681;DHT22;55836;49.858;6.756;2022-07-26T07:22:15;18.50;99.90
68681;DHT22;55836;49.858;6.756;2022-07-26T07:24:41;18.60;99.90
68681;DHT22;55836;49.858;6.756;2022-07-26T07:27:07;18.60;99.90
68681;DHT22;55836;49.858;6.756;2022-07-26T07:29:34;18.40;99.90
68681;DHT22;55836;49.858;6.756;2022-07-26T07:32:00;18.20;99.90
68681;DHT22;55836;49.858;6.756;2022-07-26T07:34:25;18.30;99.90
68681;DHT22;55836;49.858;6.756;2022-07-26T07:36:51;18.40;99.90
68681;DHT22;55836;49.858;6.756;2022-07-26T07:39:17;18.60;99.90
68681;DHT22;55836;49.858;6.756;2022-07-26T07:41:46;18.80;99.90
68681;DHT22;55836;49.858;6.756;2022-07-26T07:44:12;19.10;99.90
68681;DHT22;55836;49.858;6.756;2022-07-26T07:46:38;19.10;99.90
68681;DHT22;55836;49.858;6.756;2022-07-26T07:49:04;19.00;99.90
68681;DHT22;55836;49.858;6.756;2022-07-26T07:51:31;19.20;99.90
68681;DHT22;55836;49.858;6.756;2022-07-26T07:53:57;19.30;99.90
68681;DHT22;55836;49.858;6.756;2022-07-26T07:56:23;19.40;99.90
68681;DHT22;55836;49.858;6.756;2022-07-26T07:58:49;19.80;99.90
68681;DHT22;55836;49.858;6.756;2022-07-26T08:01:15;19.80;99.90
68681;DHT22;55836;49.858;6.756;2022-07-26T08:03:40;19.80;99.90
68681;DHT22;55836;49.858;6.756;2022-07-26T08:06:07;19.80;99.90
68681;DHT22;55836;49.858;6.756;2022-07-26T08:08:34;19.60;99.90
68681;DHT22;55836;49.858;6.756;2022-07-26T08:11:00;19.60;99.90
68681;DHT22;55836;49.858;6.756;2022-07-26T08:13:29;20.00;99.90
68681;DHT22;55836;49.858;6.756;2022-07-26T08:16:14;19.80;99.90
68681;DHT22;55836;49.858;6.756;2022-07-26T08:18:40;20.10;99.90
68681;DHT22;55836;49.858;6.756;2022-07-26T08:21:06;20.40;99.90
68681;DHT22;55836;49.858;6.756;2022-07-26T08:23:31;20.70;99.90
68681;DHT22;55836;49.858;6.756;2022-07-26T08:25:57;20.90;99.90
68681;DHT22;55836;49.858;6.756;2022-07-26T08:28:27;20.90;99.90
68681;DHT22;55836;49.858;6.756;2022-07-26T08:30:53;20.90;99.90
68681;DHT22;55836;49.858;6.756;2022-07-26T08:33:18;21.10;99.90
68681;DHT22;55836;49.858;6.756;2022-07-26T08:35:44;21.00;99.90
68681;DHT22;55836;49.858;6.756;2022-07-26T08:38:10;21.20;99.90
68681;DHT22;55836;49.858;6.756;2022-07-26T08:40:36;21.20;99.90
68681;DHT22;55836;49.858;6.756;2022-07-26T08:43:02;21.00;99.90
68681;DHT22;55836;49.858;6.756;2022-07-26T08:45:29;20.90;99.90
68681;DHT22;55836;49.858;6.756;2022-07-26T08:47:56;20.90;99.90
68681;DHT22;55836;49.858;6.756;2022-07-26T08:50:23;20.70;99.90
68681;DHT22;55836;49.858;6.756;2022-07-26T08:52:50;20.70;99.90
68681;DHT22;55836;49.858;6.756;2022-07-26T08:55:18;20.40;99.90
68681;DHT22;55836;49.858;6.756;2022-07-26T08:57:45;20.40;99.90
68681;DHT22;55836;49.858;6.756;2022-07-26T09:00:22;20.70;99.90
68681;DHT22;55836;49.858;6.756;2022-07-26T09:02:50;20.90;99.90
68681;DHT22;55836;49.858;6.756;2022-07-26T09:05:27;20.80;99.90
68681;DHT22;55836;49.858;6.756;2022-07-26T09:07:54;20.90;99.90
68681;DHT22;55836;49.858;6.756;2022-07-26T09:10:19;21.00;99.90
68681;DHT22;55836;49.858;6.756;2022-07-26T09:12:55;20.90;99.90
68681;DHT22;55836;49.858;6.756;2022-07-26T09:15:25;20.90;99.90
68681;DHT22;55836;49.858;6.756;2022-07-26T09:17:54;20.60;99.90
68681;DHT22;55836;49.858;6.756;2022-07-26T09:20:23;20.10;99.90
68681;DHT22;55836;49.858;6.756;2022-07-26T09:23:07;20.30;99.90
68681;DHT22;55836;49.858;6.756;2022-07-26T09:25:38;20.70;99.90
68681;DHT22;55836;49.858;6.756;2022-07-26T09:28:30;20.60;99.90
68681;DHT22;55836;49.858;6.756;2022-07-26T09:31:03;20.70;99.90
68681;DHT22;55836;49.858;6.756;2022-07-26T09:33:47;21.20;99.90
68681;DHT22;55836;49.858;6.756;2022-07-26T09:36:16;21.50;99.90
68681;DHT22;55836;49.858;6.756;2022-07-26T09:38:51;21.80;99.90
68681;DHT22;55836;49.858;6.756;2022-07-26T09:43:49;22.20;98.70
68681;DHT22;55836;49.858;6.756;2022-07-26T09:46:16;22.20;98.80
68681;DHT22;55836;49.858;6.756;2022-07-26T09:48:42;22.50;98.90
68681;DHT22;55836;49.858;6.756;2022-07-26T09:51:09;22.80;98.10
68681;DHT22;55836;49.858;6.756;2022-07-26T09:53:45;22.90;96.80
68681;DHT22;55836;49.858;6.756;2022-07-26T09:56:12;23.20;97.20
68681;DHT22;55836;49.858;6.756;2022-07-26T09:58:38;23.40;95.90
68681;DHT22;55836;49.858;6.756;2022-07-26T10:01:05;23.10;95.60
68681;DHT22;55836;49.858;6.756;2022-07-26T10:03:33;22.90;96.30
68681;DHT22;55836;49.858;6.756;2022-07-26T10:05:59;22.90;95.60
68681;DHT22;55836;49.858;6.756;2022-07-26T10:08:26;22.50;96.40
68681;DHT22;55836;49.858;6.756;2022-07-26T10:10:53;22.10;96.90
68681;DHT22;55836;49.858;6.756;2022-07-26T10:13:20;22.00;97.70
68681;DHT22;55836;49.858;6.756;2022-07-26T10:15:48;21.80;98.10
68681;DHT22;55836;49.858;6.756;2022-07-26T10:21:26;21.90;98.00
68681;DHT22;55836;49.858;6.756;2022-07-26T10:23:55;22.50;96.80
68681;DHT22;55836;49.858;6.756;2022-07-26T10:31:48;22.70;96.40
68681;DHT22;55836;49.858;6.756;2022-07-26T10:37:02;23.40;93.90
68681;DHT22;55836;49.858;6.756;2022-07-26T10:39:28;23.70;93.10
68681;DHT22;55836;49.858;6.756;2022-07-26T10:42:00;23.90;93.40
68681;DHT22;55836;49.858;6.756;2022-07-26T10:44:28;23.70;92.30
68681;DHT22;55836;49.858;6.756;2022-07-26T10:52:25;23.40;93.50
68681;DHT22;55836;49.858;6.756;2022-07-26T10:59:57;23.70;92.60
68681;DHT22;55836;49.858;6.756;2022-07-26T11:02:25;23.40;92.50
68681;DHT22;55836;49.858;6.756;2022-07-26T11:05:00;23.30;93.20
68681;DHT22;55836;49.858;6.756;2022-07-26T11:07:29;23.40;92.80
68681;DHT22;55836;49.858;6.756;2022-07-26T11:09:59;23.30;92.80
68681;DHT22;55836;49.858;6.756;2022-07-26T11:12:26;23.10;93.20
68681;DHT22;55836;49.858;6.756;2022-07-26T11:14:52;22.90;93.60
68681;DHT22;55836;49.858;6.756;2022-07-26T11:17:28;23.20;93.90
68681;DHT22;55836;49.858;6.756;2022-07-26T11:19:55;23.20;92.60
68681;DHT22;55836;49.858;6.756;2022-07-26T11:22:30;23.30;92.80
68681;DHT22;55836;49.858;6.756;2022-07-26T11:24:55;23.70;91.50
68681;DHT22;55836;49.858;6.756;2022-07-26T11:27:21;23.80;90.20
68681;DHT22;55836;49.858;6.756;2022-07-26T11:29:47;23.60;90.40
68681;DHT22;55836;49.858;6.756;2022-07-26T11:32:20;23.30;90.90
68681;DHT22;55836;49.858;6.756;2022-07-26T11:34:45;23.50;91.80
68681;DHT22;55836;49.858;6.756;2022-07-26T11:37:12;23.60;91.20
68681;DHT22;55836;49.858;6.756;2022-07-26T11:39:38;23.70;90.70
68681;DHT22;55836;49.858;6.756;2022-07-26T11:42:06;23.40;91.30
68681;DHT22;55836;49.858;6.756;2022-07-26T11:44:32;24.00;91.00
68681;DHT22;55836;49.858;6.756;2022-07-26T11:46:59;25.00;89.10
68681;DHT22;55836;49.858;6.756;2022-07-26T11:49:26;25.20;85.50
68681;DHT22;55836;49.858;6.756;2022-07-26T11:51:57;24.00;88.70
68681;DHT22;55836;49.858;6.756;2022-07-26T11:54:25;23.40;87.60
68681;DHT22;55836;49.858;6.756;2022-07-26T11:59:25;23.20;88.00
68681;DHT22;55836;49.858;6.756;2022-07-26T12:01:52;23.10;88.30
68681;DHT22;55836;49.858;6.756;2022-07-26T12:04:24;23.20;88.40
68681;DHT22;55836;49.858;6.756;2022-07-26T12:06:51;23.50;88.60
68681;DHT22;55836;49.858;6.756;2022-07-26T12:09:31;23.60;88.10
68681;DHT22;55836;49.858;6.756;2022-07-26T12:11:57;24.00;86.90
68681;DHT22;55836;49.858;6.756;2022-07-26T12:14:34;24.30;85.60
68681;DHT22;55836;49.858;6.756;2022-07-26T12:17:16;24.00;85.70
68681;DHT22;55836;49.858;6.756;2022-07-26T12:19:43;24.30;86.50
68681;DHT22;55836;49.858;6.756;2022-07-26T12:22:14;24.60;85.20
68681;DHT22;55836;49.858;6.756;2022-07-26T12:24:53;24.40;85.00
68681;DHT22;55836;49.858;6.756;2022-07-26T12:27:28;24.60;84.10
68681;DHT22;55836;49.858;6.756;2022-07-26T12:32:34;25.20;82.20
68681;DHT22;55836;49.858;6.756;2022-07-26T12:35:05;25.10;82.40
68681;DHT22;55836;49.858;6.756;2022-07-26T12:37:33;25.20;82.30
68681;DHT22;55836;49.858;6.756;2022-07-26T12:42:38;25.50;81.80
68681;DHT22;55836;49.858;6.756;2022-07-26T12:45:07;25.30;82.20
68681;DHT22;55836;49.858;6.756;2022-07-26T12:47:34;24.80;84.70
68681;DHT22;55836;49.858;6.756;2022-07-26T12:50:01;25.00;84.40
68681;DHT22;55836;49.858;6.756;2022-07-26T12:52:28;25.20;83.70
68681;DHT22;55836;49.858;6.756;2022-07-26T12:54:53;25.50;83.10
68681;DHT22;55836;49.858;6.756;2022-07-26T12:57:20;25.20;82.20
68681;DHT22;55836;49.858;6.756;2022-07-26T12:59:47;24.70;83.30
68681;DHT22;55836;49.858;6.756;2022-07-26T13:02:13;24.90;82.10
68681;DHT22;55836;49.858;6.756;2022-07-26T13:04:39;25.00;81.10
68681;DHT22;55836;49.858;6.756;2022-07-26T13:07:05;25.20;81.10
68681;DHT22;55836;49.858;6.756;2022-07-26T13:09:31;25.40;80.50
68681;DHT22;55836;49.858;6.756;2022-07-26T13:11:59;25.30;81.20
68681;DHT22;55836;49.858;6.756;2022-07-26T13:14:25;25.30;80.70
68681;DHT22;55836;49.858;6.756;2022-07-26T13:16:50;25.40;82.20
68681;DHT22;55836;49.858;6.756;2022-07-26T13:19:16;25.30;80.30
68681;DHT22;55836;49.858;6.756;2022-07-26T13:21:42;24.30;82.50
68681;DHT22;55836;49.858;6.756;2022-07-26T13:24:08;24.60;83.70
68681;DHT22;55836;49.858;6.756;2022-07-26T13:26:33;25.40;81.10
68681;DHT22;55836;49.858;6.756;2022-07-26T13:28:59;25.50;80.00
68681;DHT22;55836;49.858;6.756;2022-07-26T13:31:25;25.90;77.90
68681;DHT22;55836;49.858;6.756;2022-07-26T13:33:50;25.90;77.50
68681;DHT22;55836;49.858;6.756;2022-07-26T13:36:16;25.90;78.90
68681;DHT22;55836;49.858;6.756;2022-07-26T13:38:42;26.40;77.20
68681;DHT22;55836;49.858;6.756;2022-07-26T13:41:08;26.50;77.30
68681;DHT22;55836;49.858;6.756;2022-07-26T13:43:34;26.90;75.80
68681;DHT22;55836;49.858;6.756;2022-07-26T13:46:00;26.80;74.10
68681;DHT22;55836;49.858;6.756;2022-07-26T13:48:26;26.80;73.90
68681;DHT22;55836;49.858;6.756;2022-07-26T13:50:55;26.30;74.50
68681;DHT22;55836;49.858;6.756;2022-07-26T13:53:22;25.50;77.10
68681;DHT22;55836;49.858;6.756;2022-07-26T13:55:48;26.00;77.00
68681;DHT22;55836;49.858;6.756;2022-07-26T13:58:14;26.50;75.80
68681;DHT22;55836;49.858;6.756;2022-07-26T14:00:40;26.40;75.50
68681;DHT22;55836;49.858;6.756;2022-07-26T14:03:06;27.10;75.00
68681;DHT22;55836;49.858;6.756;2022-07-26T14:05:33;27.10;73.50
68681;DHT22;55836;49.858;6.756;2022-07-26T14:07:58;26.60;73.80
68681;DHT22;55836;49.858;6.756;2022-07-26T14:10:25;26.40;73.10
68681;DHT22;55836;49.858;6.756;2022-07-26T14:12:51;26.90;74.80
68681;DHT22;55836;49.858;6.756;2022-07-26T14:15:17;27.30;73.10
68681;DHT22;55836;49.858;6.756;2022-07-26T14:17:43;27.30;71.60
68681;DHT22;55836;49.858;6.756;2022-07-26T14:20:12;26.50;72.90
68681;DHT22;55836;49.858;6.756;2022-07-26T14:22:39;26.80;71.80
68681;DHT22;55836;49.858;6.756;2022-07-26T14:25:05;26.70;72.80
68681;DHT22;55836;49.858;6.756;2022-07-26T14:27:32;26.70;71.90
68681;DHT22;55836;49.858;6.756;2022-07-26T14:29:57;26.80;70.60
68681;DHT22;55836;49.858;6.756;2022-07-26T14:32:23;26.30;71.80
68681;DHT22;55836;49.858;6.756;2022-07-26T14:34:49;26.20;72.40
68681;DHT22;55836;49.858;6.756;2022-07-26T14:37:15;26.10;71.20
68681;DHT22;55836;49.858;6.756;2022-07-26T14:39:41;25.60;73.00
68681;DHT22;55836;49.858;6.756;2022-07-26T14:42:07;25.70;73.60
68681;DHT22;55836;49.858;6.756;2022-07-26T14:44:33;26.00;68.50
68681;DHT22;55836;49.858;6.756;2022-07-26T14:46:59;25.80;70.20
68681;DHT22;55836;49.858;6.756;2022-07-26T14:49:25;26.40;68.80
68681;DHT22;55836;49.858;6.756;2022-07-26T14:51:51;26.40;68.60
68681;DHT22;55836;49.858;6.756;2022-07-26T14:54:18;26.40;67.70
68681;DHT22;55836;49.858;6.756;2022-07-26T14:56:44;26.30;68.10
68681;DHT22;55836;49.858;6.756;2022-07-26T14:59:10;26.70;66.70
68681;DHT22;55836;49.858;6.756;2022-07-26T15:01:35;26.20;65.80
68681;DHT22;55836;49.858;6.756;2022-07-26T15:04:02;26.10;67.90
68681;DHT22;55836;49.858;6.756;2022-07-26T15:06:28;26.10;66.30
68681;DHT22;55836;49.858;6.756;2022-07-26T15:08:54;25.60;68.50
68681;DHT22;55836;49.858;6.756;2022-07-26T15:11:19;25.70;68.80
68681;DHT22;55836;49.858;6.756;2022-07-26T15:13:45;25.80;68.80
68681;DHT22;55836;49.858;6.756;2022-07-26T15:16:11;25.20;69.80
68681;DHT22;55836;49.858;6.756;2022-07-26T15:18:36;25.00;71.40
68681;DHT22;55836;49.858;6.756;2022-07-26T15:21:02;25.10;71.60
68681;DHT22;55836;49.858;6.756;2022-07-26T15:23:28;25.30;72.20
68681;DHT22;55836;49.858;6.756;2022-07-26T15:25:54;25.40;71.30
68681;DHT22;55836;49.858;6.756;2022-07-26T15:28:19;25.50;71.10
68681;DHT22;55836;49.858;6.756;2022-07-26T15:30:45;25.40;70.70
68681;DHT22;55836;49.858;6.756;2022-07-26T15:33:11;25.30;70.40
68681;DHT22;55836;49.858;6.756;2022-07-26T15:35:39;25.50;69.10
68681;DHT22;55836;49.858;6.756;2022-07-26T15:38:05;25.80;67.90
68681;DHT22;55836;49.858;6.756;2022-07-26T15:40:31;26.00;68.70
68681;DHT22;55836;49.858;6.756;2022-07-26T15:42:57;25.90;67.70
68681;DHT22;55836;49.858;6.756;2022-07-26T15:45:23;25.90;68.30
68681;DHT22;55836;49.858;6.756;2022-07-26T15:47:48;26.00;67.20
68681;DHT22;55836;49.858;6.756;2022-07-26T15:50:15;25.90;67.40
68681;DHT22;55836;49.858;6.756;2022-07-26T15:52:45;26.10;67.80
68681;DHT22;55836;49.858;6.756;2022-07-26T15:55:11;26.10;67.00
68681;DHT22;55836;49.858;6.756;2022-07-26T15:57:38;26.20;67.90
68681;DHT22;55836;49.858;6.756;2022-07-26T16:00:06;26.60;67.70